aviador You're here:

KBLF Decoded Metar

BLUEFIELD in WV, USA
Report Time2018-01-21 05:52:00
UTC Time2018-01-21 06:53:34
Flight Rules vfr VFR
Wind240° at 03 kt
W.Decomp.*RWY 23: 2.9 kt HW 0.9 kt RCW
W.Rank240° ranks 7
Current wind is below 240° avg. (6.9)
Visibility9999 m
Phenomena:N/A
Clouds:Few 022 Hf
Expected CloudBase > 1,600 ft AGL from Temp-Dew spread
CeilingNone
Temp04°C (ISA -5)
Dew Point00°C (75% RH)
AAT0.9°C
QNH1022 hPa
Density Alt2,014 ft
Elevation2,864 ft
Report Wrong Elevation
Raw Report
KBLF 210552Z AUTO 24003KT 10SM FEW022 04/00 A3019 RMK AO2 SLP224
T00440000 10067 20028 50001=

Extra information for KBLF:More info

Metar Taf Metar & Taf Last 4 Metars F.Rules Stats Wind Profile Meteogram Temp Stats Airport Information Weather charts Add Link Nearby VenuesMetar ALERT Operation Metar Decoded Social comments

AIRNAV info for KBLF